Архив погоды в Посьете

Метеограмма Посьет
Пятница, 24 Мая
Время местн. Темп Ветер Видим Явления Облачность нижн/средн/верх Атм. давл. Влжн Точка росы ВНГО R Сост. почвы Tg s
Напр Скр Прв ур.ст ур.м изм
16:00 +18.5° В,Ю-В 3 - 20 км - переменная облачность 753 756 -1.1 57% +9.8° - - - - -
13:00 +18.5° Ю,Ю-В 3 - 20 км - переменная облачность 754 757 -0.3 54% +9.1° более 2.5 км - - - -
10:00 +16.4° З 2 - 20 км - ясно 754 757 +0.3 66% +10.1° более 2.5 км - - - -
07:00 +10.4° З,С-З 2 - 20 км - переменная облачность 754 757 -0.1 84% +7.8° - 0 Сухая (без трещин) - -
04:00 +10° С 1 - 20 км - ясно 754 757 +0.3 86% +7.7° более 2.5 км - - - -
01:00 +11.2° В 3 - 20 км - ясно 753 757 +0.3 85% +8.7° более 2.5 км - - - -
Четверг, 23 Мая
Время местн. Темп Ветер Видим Явления Облачность нижн/средн/верх Атм. давл. Влжн Точка росы ВНГО R Сост. почвы Tg s
Напр Скр Прв ур.ст ур.м изм
22:00 +13.8° Ю-В 1 - 20 км - ясно 753 756 +1.8 64% +7.2° более 2.5 км - - - -
19:00 +15.7° Ю,Ю-В 4 - 20 км - ясно 751 755 +0.7 59% +7.8° более 2.5 км 0 - - -
16:00 +18.9° Ю-В 4 - 20 км - незначительная облачность 750 754 +0.1 56% +9.9° 1 км - - - -
13:00 +17.7° Ю,Ю-В 4 - 20 км - незначительная облачность 751 754 +0.5 60% +9.8° 1 км - - - -
10:00 +14.7° В 2 - 20 км - облачно с прояснениями 750 753 +0.6 68% +8.8° 1 км - - - -
07:00 +10.5° В,С-В 3 - 20 км - переменная облачность 749 753 +0.6 83% +7.8° более 2.5 км 0 Сухая (без трещин) +8° -
04:00 +12.4° З,Ю-З 1 - 20 км - облачно 749 752 -0.2 71% +7.3° 1 км - - - -
01:00 +13.6° Ю-З 2 - 20 км - облачно 749 753 +0.7 71% +8.5° 1 км - - - -
Среда, 22 Мая
Время местн. Темп Ветер Видим Явления Облачность нижн/средн/верх Атм. давл. Влжн Точка росы ВНГО R Сост. почвы Tg s
Напр Скр Прв ур.ст ур.м изм
22:00 +16.4° С 1 - 20 км - облачно 748 752 +1.3 48% +5.4° 1 км - - - -
19:00 +17° З,С-З 3 - 20 км - облачно с прояснениями 747 750 +0.7 47% +5.7° 1 км 0 - - -
16:00 +16.7° З 7 15 20 км - облачно с прояснениями 746 750 +0.5 51% +6.6° 1 км - - - -
13:00 +17.6° З,С-З 6 12 20 км - облачно с прояснениями 746 749 +0.5 47% +6.1° 1 км - - - -
10:00 +16.3° З 4 - 20 км - переменная облачность 745 749 +0.8 60% +8.5° 1 км - - - -
07:00 +11.8° В 2 - 20 км - облачно с прояснениями 745 748 -0.3 80% +8.4° более 2.5 км 0 Влажная (без луж) +9° -
04:00 +11.9° З 1 - 20 км - облачно с прояснениями 745 748 -0.6 75% +7.6° - - - - -
01:00 +11.4° З 1 - 20 км - переменная облачность 745 749 +0.2 79% +7.8° - - - - -
Вторник, 21 Мая
Время местн. Темп Ветер Видим Явления Облачность нижн/средн/верх Атм. давл. Влжн Точка росы ВНГО R Сост. почвы Tg s
Напр Скр Прв ур.ст ур.м изм
22:00 +14.4° З 5 - 20 км небо без изменений {ливневые осадки} облачно 745 749 +1.2 62% +7.3° - - - - -
19:00 +15.4° З 1 - 20 км небо без изменений {ливневые осадки} облачно с прояснениями 744 747 +0.8 67% +9.2° 1 км 2 - - -
16:00 +14.1° Ю-В 2 11 10 км слабый ливневый дождь облачно 743 747 +0.4 68% +8.3° 1 км - - - -
13:00 +16.4° В 2 - 20 км ливневый дождь облачно с прояснениями 743 746 -0.3 62% +9.1° 1 км - - - -